Time;durP1;ratioP1;P1;durP2;ratioP2;P2;SDS_P1;SDS_P2;PMS_P1;PMS_P2;Temp;Humidity;BMP_temperature;BMP_pressure;BME280_temperature;BME280_humidity;BME280_pressure;Samples;Min_cycle;Max_cycle;Signal;HPM_P1;HPM_P2
2023/04/06 00:00:14;;;;;;;3.70;3.47;;;;;;;;;;4995722;28;20090;-78
2023/04/06 00:02:40;;;;;;;0.28;0.28;;;;;;;;;;4987682;28;20073;-77
2023/04/06 00:05:05;;;;;;;0.60;0.60;;;;;;;;;;4996977;28;20090;-77
2023/04/06 00:07:33;;;;;;;0.20;0.20;;;;;;;;;;4992129;28;20034;-78
2023/04/06 00:09:58;;;;;;;1.10;1.05;;;;;;;;;;4996530;28;20026;-84
2023/04/06 00:12:24;;;;;;;0.35;0.35;;;;;;;;;;5008407;28;20393;-82
2023/04/06 00:14:50;;;;;;;0.10;0.10;;;;;;;;;;4984780;28;20038;-78
2023/04/06 00:17:15;;;;;;;0.10;0.10;;;;;;;;;;4994964;28;20038;-84
2023/04/06 00:19:41;;;;;;;0.10;0.10;;;;;;;;;;5013744;28;20042;-83
2023/04/06 00:22:06;;;;;;;0.57;0.52;;;;;;;;;;4996426;28;20057;-83
2023/04/06 00:24:32;;;;;;;1.40;0.85;;;;;;;;;;5012971;28;20029;-85
2023/04/06 00:26:57;;;;;;;0.10;0.10;;;;;;;;;;4996590;28;20461;-86
2023/04/06 00:29:23;;;;;;;0.30;0.30;;;;;;;;;;4995707;28;20377;-88
2023/04/06 00:31:48;;;;;;;0.20;0.20;;;;;;;;;;4980365;28;20069;-88
2023/04/06 00:34:15;;;;;;;0.20;0.20;;;;;;;;;;4996154;28;20065;-87
2023/04/06 00:36:41;;;;;;;0.85;0.82;;;;;;;;;;4980348;28;20040;-88
2023/04/06 00:39:07;;;;;;;1.20;1.08;;;;;;;;;;5013888;28;20026;-88
2023/04/06 00:41:32;;;;;;;0.20;0.20;;;;;;;;;;5014257;28;20429;-87
2023/04/06 00:43:58;;;;;;;1.35;0.98;;;;;;;;;;4980088;28;20026;-88
2023/04/06 00:46:23;;;;;;;0.68;0.68;;;;;;;;;;4995592;28;20041;-90
2023/04/06 00:48:49;;;;;;;0.10;0.10;;;;;;;;;;5013455;28;20129;-86
2023/04/06 00:51:14;;;;;;;1.00;1.00;;;;;;;;;;4978482;28;20061;-89
2023/04/06 00:53:40;;;;;;;0.30;0.30;;;;;;;;;;4994247;28;20508;-80
2023/04/06 00:56:09;;;;;;;0.20;0.20;;;;;;;;;;4993558;28;20041;-80
2023/04/06 00:58:46;;;;;;;0.10;0.10;;;;;;;;;;4979228;28;20037;-79
2023/04/06 01:01:11;;;;;;;0.10;0.10;;;;;;;;;;4993885;28;20048;-79
2023/04/06 01:03:37;;;;;;;0.28;0.28;;;;;;;;;;4994141;28;20037;-80
2023/04/06 01:06:03;;;;;;;0.15;0.15;;;;;;;;;;4994496;28;20028;-80
2023/04/06 01:08:35;;;;;;;0.10;0.10;;;;;;;;;;4995589;28;20080;-85
2023/04/06 01:11:13;;;;;;;0.10;0.10;;;;;;;;;;5005146;28;20042;-84
2023/04/06 01:13:39;;;;;;;0.20;0.20;;;;;;;;;;5008551;28;20073;-83
2023/04/06 01:16:09;;;;;;;0.10;0.10;;;;;;;;;;4995613;28;20486;-85
2023/04/06 01:18:55;;;;;;;0.10;0.10;;;;;;;;;;5012960;28;20494;-85
2023/04/06 01:21:26;;;;;;;0.10;0.10;;;;;;;;;;4996216;28;20038;-86
2023/04/06 01:24:09;;;;;;;0.10;0.10;;;;;;;;;;4994980;28;20381;-85
2023/04/06 01:26:52;;;;;;;0.10;0.10;;;;;;;;;;4995863;28;20070;-85
2023/04/06 01:29:18;;;;;;;0.10;0.10;;;;;;;;;;4996487;28;20084;-85
2023/04/06 01:31:43;;;;;;;0.20;0.20;;;;;;;;;;4998419;28;20034;-85
2023/04/06 01:34:09;;;;;;;0.10;0.10;;;;;;;;;;4999334;28;20030;-87
2023/04/06 01:36:35;;;;;;;0.20;0.20;;;;;;;;;;4999397;28;20036;-85
2023/04/06 01:39:15;;;;;;;0.10;0.10;;;;;;;;;;4999425;28;20037;-86
2023/04/06 01:41:41;;;;;;;0.10;0.10;;;;;;;;;;4999588;28;20103;-84
2023/04/06 01:44:07;;;;;;;0.22;0.22;;;;;;;;;;4999318;28;20041;-82
2023/04/06 01:46:32;;;;;;;0.10;0.10;;;;;;;;;;4999125;28;20448;-82
2023/04/06 01:49:02;;;;;;;0.10;0.10;;;;;;;;;;4985804;28;20030;-82
2023/04/06 01:51:35;;;;;;;0.30;0.30;;;;;;;;;;4986018;28;20045;-82
2023/04/06 01:54:04;;;;;;;0.10;0.10;;;;;;;;;;5001188;28;20377;-83
2023/04/06 01:56:52;;;;;;;0.10;0.10;;;;;;;;;;5006148;28;20061;-78
2023/04/06 01:59:27;;;;;;;0.10;0.10;;;;;;;;;;4998232;28;20065;-79
2023/04/06 02:01:53;;;;;;;0.20;0.20;;;;;;;;;;4998802;28;20080;-77
2023/04/06 02:04:21;;;;;;;0.17;0.17;;;;;;;;;;4998569;28;20029;-79
2023/04/06 02:06:50;;;;;;;0.20;0.20;;;;;;;;;;4998907;28;20040;-79
2023/04/06 02:09:19;;;;;;;0.70;0.70;;;;;;;;;;4998777;28;20048;-79
2023/04/06 02:11:45;;;;;;;0.55;0.55;;;;;;;;;;4998650;28;20484;-79
2023/04/06 02:14:10;;;;;;;0.30;0.30;;;;;;;;;;5016098;28;20045;-78
2023/04/06 02:16:42;;;;;;;0.10;0.10;;;;;;;;;;4998473;28;20048;-79
2023/04/06 02:19:07;;;;;;;0.20;0.20;;;;;;;;;;4998413;28;20132;-80
2023/04/06 02:21:33;;;;;;;0.10;0.10;;;;;;;;;;5015270;28;20499;-80
2023/04/06 02:23:58;;;;;;;0.10;0.10;;;;;;;;;;4998582;28;20034;-80
2023/04/06 02:26:24;;;;;;;2.38;0.95;;;;;;;;;;4982272;28;20037;-80
2023/04/06 02:28:50;;;;;;;0.70;0.65;;;;;;;;;;4997609;28;20044;-79
2023/04/06 02:31:15;;;;;;;0.65;0.57;;;;;;;;;;4998280;28;20116;-82
2023/04/06 02:33:43;;;;;;;1.13;1.02;;;;;;;;;;4998096;28;20034;-77
2023/04/06 02:36:09;;;;;;;0.25;0.25;;;;;;;;;;4998181;28;20034;-76
2023/04/06 02:38:34;;;;;;;0.95;0.95;;;;;;;;;;4998157;28;20041;-77
2023/04/06 02:41:01;;;;;;;0.77;0.77;;;;;;;;;;4998045;28;20389;-77
2023/04/06 02:43:28;;;;;;;0.10;0.10;;;;;;;;;;4981975;28;20062;-77
2023/04/06 02:46:03;;;;;;;0.10;0.10;;;;;;;;;;4997715;28;20053;-78
2023/04/06 02:48:36;;;;;;;0.00;0.00;;;;;;;;;;4997582;28;20088;-77
2023/04/06 02:51:01;;;;;;;0.30;0.30;;;;;;;;;;5014441;28;20117;-82
2023/04/06 02:53:27;;;;;;;0.88;0.88;;;;;;;;;;4980277;28;20149;-83
2023/04/06 02:55:53;;;;;;;0.10;0.10;;;;;;;;;;4979525;28;20042;-83
2023/04/06 02:58:18;;;;;;;0.10;0.10;;;;;;;;;;4995709;28;20562;-83
2023/04/06 03:00:49;;;;;;;0.75;0.75;;;;;;;;;;4994754;28;20041;-83
2023/04/06 03:03:15;;;;;;;0.10;0.10;;;;;;;;;;4979216;28;20030;-83
2023/04/06 03:05:42;;;;;;;2.45;1.92;;;;;;;;;;4995284;28;20029;-83
2023/04/06 03:08:08;;;;;;;0.10;0.10;;;;;;;;;;4995388;28;20137;-85
2023/04/06 03:10:52;;;;;;;0.35;0.35;;;;;;;;;;4997140;28;20080;-83
2023/04/06 03:13:18;;;;;;;2.83;1.95;;;;;;;;;;4996919;28;20129;-84
2023/04/06 03:16:01;;;;;;;0.20;0.20;;;;;;;;;;5014127;28;20113;-82
2023/04/06 03:18:28;;;;;;;0.22;0.20;;;;;;;;;;4996459;28;20084;-84
2023/04/06 03:20:55;;;;;;;0.10;0.10;;;;;;;;;;4997005;28;20048;-81
2023/04/06 03:23:24;;;;;;;0.25;0.25;;;;;;;;;;4997103;28;20158;-82
2023/04/06 03:25:55;;;;;;;0.17;0.17;;;;;;;;;;4996728;28;20038;-82
2023/04/06 03:28:20;;;;;;;0.10;0.10;;;;;;;;;;5013477;28;20049;-79
2023/04/06 03:30:55;;;;;;;0.00;0.00;;;;;;;;;;4996763;28;20041;-79
2023/04/06 03:33:40;;;;;;;0.00;0.00;;;;;;;;;;4996774;28;20029;-78
2023/04/06 03:36:08;;;;;;;0.85;0.85;;;;;;;;;;4996493;28;20061;-78
2023/04/06 03:38:38;;;;;;;0.20;0.20;;;;;;;;;;4996302;28;20434;-79
2023/04/06 03:41:09;;;;;;;3.10;2.05;;;;;;;;;;4996659;28;20132;-78
2023/04/06 03:43:34;;;;;;;0.43;0.43;;;;;;;;;;4997202;28;20132;-79
2023/04/06 03:46:00;;;;;;;1.95;1.50;;;;;;;;;;5014465;28;20485;-80
2023/04/06 03:48:26;;;;;;;0.10;0.10;;;;;;;;;;4995256;28;20030;-79
2023/04/06 03:50:51;;;;;;;0.57;0.57;;;;;;;;;;5013945;28;20073;-81
2023/04/06 03:53:17;;;;;;;0.10;0.10;;;;;;;;;;5012166;28;20045;-80
2023/04/06 03:55:42;;;;;;;0.93;0.90;;;;;;;;;;4996114;28;20041;-80
2023/04/06 03:58:08;;;;;;;1.35;1.25;;;;;;;;;;5013672;28;20068;-80
2023/04/06 04:00:33;;;;;;;0.10;0.10;;;;;;;;;;4995551;28;20434;-81
2023/04/06 04:02:59;;;;;;;0.00;0.00;;;;;;;;;;4996323;28;20639;-87
2023/04/06 04:05:25;;;;;;;0.82;0.77;;;;;;;;;;5018650;28;20112;-86
2023/04/06 04:07:52;;;;;;;0.10;0.10;;;;;;;;;;5001437;28;20042;-89
2023/04/06 04:10:19;;;;;;;0.00;0.00;;;;;;;;;;4983886;28;20030;-85
2023/04/06 04:12:45;;;;;;;0.10;0.10;;;;;;;;;;4996638;28;20163;-82
2023/04/06 04:15:11;;;;;;;0.10;0.10;;;;;;;;;;5014468;28;20488;-83
2023/04/06 04:17:36;;;;;;;1.35;1.35;;;;;;;;;;5012751;28;20117;-81
2023/04/06 04:20:01;;;;;;;0.80;0.57;;;;;;;;;;5013536;28;20078;-83
2023/04/06 04:22:27;;;;;;;0.10;0.10;;;;;;;;;;4995745;28;20124;-83
2023/04/06 04:24:53;;;;;;;0.13;0.13;;;;;;;;;;5013315;28;20111;-81
2023/04/06 04:27:20;;;;;;;0.10;0.10;;;;;;;;;;5013183;28;20030;-82
2023/04/06 04:29:47;;;;;;;0.10;0.10;;;;;;;;;;4995554;28;20080;-82
2023/04/06 04:32:12;;;;;;;0.10;0.10;;;;;;;;;;4994960;28;20116;-84
2023/04/06 04:34:40;;;;;;;0.10;0.10;;;;;;;;;;4978416;28;20029;-82
2023/04/06 04:37:07;;;;;;;0.10;0.10;;;;;;;;;;4994837;28;20022;-82
2023/04/06 04:39:53;;;;;;;0.10;0.10;;;;;;;;;;5012559;28;20740;-88
2023/04/06 04:42:18;;;;;;;0.40;0.40;;;;;;;;;;4995839;28;20045;-86
2023/04/06 04:44:49;;;;;;;0.10;0.10;;;;;;;;;;4995072;28;20040;-84
2023/04/06 04:47:23;;;;;;;0.15;0.15;;;;;;;;;;4994066;28;20200;-84
2023/04/06 04:49:48;;;;;;;0.10;0.10;;;;;;;;;;5012311;28;20126;-88
2023/04/06 04:52:19;;;;;;;1.48;1.35;;;;;;;;;;4995260;28;20033;-89
2023/04/06 04:55:08;;;;;;;1.25;1.15;;;;;;;;;;5002318;28;20132;-89
2023/04/06 04:57:33;;;;;;;1.17;0.90;;;;;;;;;;5011518;28;20069;-89
2023/04/06 04:59:59;;;;;;;0.30;0.30;;;;;;;;;;4995370;28;20490;-88
2023/04/06 05:02:25;;;;;;;0.73;0.73;;;;;;;;;;5009805;28;20042;-78
2023/04/06 05:05:06;;;;;;;0.63;0.63;;;;;;;;;;4979287;28;20101;-78
2023/04/06 05:07:32;;;;;;;0.00;0.00;;;;;;;;;;4997990;28;20041;-79
2023/04/06 05:09:59;;;;;;;0.13;0.13;;;;;;;;;;4982660;28;20037;-77
2023/04/06 05:12:28;;;;;;;0.10;0.10;;;;;;;;;;4998264;28;20084;-79
2023/04/06 05:15:03;;;;;;;0.00;0.00;;;;;;;;;;4999272;28;20088;-78
2023/04/06 05:17:28;;;;;;;0.10;0.10;;;;;;;;;;4998508;28;20034;-78
2023/04/06 05:19:55;;;;;;;0.10;0.10;;;;;;;;;;5012887;28;20038;-79
2023/04/06 05:22:23;;;;;;;1.35;0.38;;;;;;;;;;4977651;28;20042;-77
2023/04/06 05:24:57;;;;;;;0.17;0.17;;;;;;;;;;4996145;28;20065;-79
2023/04/06 05:27:23;;;;;;;0.10;0.10;;;;;;;;;;4996590;28;20069;-80
2023/04/06 05:29:49;;;;;;;0.10;0.10;;;;;;;;;;5015360;28;20121;-75
2023/04/06 05:32:16;;;;;;;0.45;0.45;;;;;;;;;;4995633;28;20034;-77
2023/04/06 05:34:42;;;;;;;0.10;0.10;;;;;;;;;;4997953;28;20041;-76
2023/04/06 05:37:08;;;;;;;1.75;1.67;;;;;;;;;;5015260;28;20382;-83
2023/04/06 05:39:34;;;;;;;1.15;1.05;;;;;;;;;;4995914;28;20041;-77
2023/04/06 05:42:03;;;;;;;0.10;0.10;;;;;;;;;;4992532;28;20034;-78
2023/04/06 05:44:55;;;;;;;0.28;0.28;;;;;;;;;;5011994;28;20442;-79
2023/04/06 05:47:20;;;;;;;0.95;0.73;;;;;;;;;;4996923;28;20041;-83
2023/04/06 05:49:52;;;;;;;0.47;0.47;;;;;;;;;;4996856;28;20393;-79
2023/04/06 05:52:37;;;;;;;0.45;0.45;;;;;;;;;;5006743;28;20054;-77
2023/04/06 05:55:03;;;;;;;0.47;0.40;;;;;;;;;;5005921;28;20026;-81
2023/04/06 05:57:30;;;;;;;0.10;0.10;;;;;;;;;;5015019;28;20034;-78
2023/04/06 05:59:56;;;;;;;0.10;0.10;;;;;;;;;;5008549;28;20501;-81
2023/04/06 06:02:25;;;;;;;0.20;0.20;;;;;;;;;;4999574;28;20121;-80
2023/04/06 06:04:52;;;;;;;0.50;0.50;;;;;;;;;;4995216;28;20515;-80
2023/04/06 06:07:19;;;;;;;0.10;0.10;;;;;;;;;;4995236;28;20069;-79
2023/04/06 06:09:57;;;;;;;0.30;0.30;;;;;;;;;;5000393;28;20110;-78
2023/04/06 06:12:27;;;;;;;3.22;0.55;;;;;;;;;;5005446;28;20038;-80
2023/04/06 06:14:54;;;;;;;4.78;4.40;;;;;;;;;;5005351;28;20112;-82
2023/04/06 06:17:20;;;;;;;1.70;1.63;;;;;;;;;;4951835;28;20050;-80
2023/04/06 06:19:47;;;;;;;3.28;3.00;;;;;;;;;;5003611;28;20121;-78
2023/04/06 06:22:12;;;;;;;0.10;0.10;;;;;;;;;;4985641;28;20125;-77
2023/04/06 06:24:41;;;;;;;0.25;0.25;;;;;;;;;;5003278;28;20421;-77
2023/04/06 06:27:07;;;;;;;0.10;0.10;;;;;;;;;;4987545;28;20117;-78
2023/04/06 06:29:35;;;;;;;0.63;0.63;;;;;;;;;;4988274;28;20031;-78
2023/04/06 06:32:00;;;;;;;0.17;0.17;;;;;;;;;;4969554;28;20026;-80
2023/04/06 06:34:26;;;;;;;2.67;1.38;;;;;;;;;;4989522;28;20034;-78
2023/04/06 06:36:55;;;;;;;0.10;0.10;;;;;;;;;;4992448;28;20404;-78
2023/04/06 06:39:21;;;;;;;0.10;0.10;;;;;;;;;;4986240;28;20073;-78
2023/04/06 06:41:48;;;;;;;0.20;0.20;;;;;;;;;;4984936;28;20041;-77
2023/04/06 06:44:13;;;;;;;0.10;0.10;;;;;;;;;;4988235;28;20029;-80
2023/04/06 06:46:39;;;;;;;0.22;0.22;;;;;;;;;;4983033;28;20065;-79
2023/04/06 06:49:05;;;;;;;0.73;0.40;;;;;;;;;;5006164;28;20858;-79
2023/04/06 06:51:30;;;;;;;2.50;2.15;;;;;;;;;;4990189;28;20034;-78
2023/04/06 06:53:56;;;;;;;0.10;0.10;;;;;;;;;;5005415;28;20048;-79
2023/04/06 06:56:22;;;;;;;0.13;0.13;;;;;;;;;;4984501;28;20085;-81
2023/04/06 06:58:48;;;;;;;0.20;0.20;;;;;;;;;;4987117;28;20500;-80
2023/04/06 07:01:13;;;;;;;0.13;0.13;;;;;;;;;;5004057;28;20064;-81
2023/04/06 07:03:39;;;;;;;0.80;0.40;;;;;;;;;;4987280;28;20052;-80
2023/04/06 07:06:05;;;;;;;0.10;0.10;;;;;;;;;;4981077;28;20378;-81
2023/04/06 07:08:30;;;;;;;0.40;0.40;;;;;;;;;;4987737;28;20022;-78
2023/04/06 07:10:56;;;;;;;0.20;0.20;;;;;;;;;;4986929;28;20084;-78
2023/04/06 07:13:22;;;;;;;1.13;0.73;;;;;;;;;;4988412;28;20041;-77
2023/04/06 07:15:49;;;;;;;0.35;0.35;;;;;;;;;;4985155;28;20026;-77
2023/04/06 07:18:15;;;;;;;0.17;0.17;;;;;;;;;;4973264;28;20053;-77
2023/04/06 07:20:41;;;;;;;0.65;0.65;;;;;;;;;;5002634;28;20018;-78
2023/04/06 07:23:07;;;;;;;0.10;0.10;;;;;;;;;;5001054;28;20030;-78
2023/04/06 07:25:32;;;;;;;0.55;0.55;;;;;;;;;;4984279;28;20908;-80
2023/04/06 07:27:58;;;;;;;0.30;0.30;;;;;;;;;;4984472;28;20037;-80
2023/04/06 07:30:26;;;;;;;0.10;0.10;;;;;;;;;;4983553;28;20046;-80
2023/04/06 07:32:52;;;;;;;0.10;0.10;;;;;;;;;;4987231;28;20056;-77
2023/04/06 07:35:19;;;;;;;0.10;0.10;;;;;;;;;;4986059;28;20096;-78
2023/04/06 07:37:44;;;;;;;0.20;0.20;;;;;;;;;;4985790;28;20477;-82
2023/04/06 07:40:10;;;;;;;0.10;0.10;;;;;;;;;;5002975;28;20021;-81
2023/04/06 07:42:36;;;;;;;0.10;0.10;;;;;;;;;;4988216;28;20510;-81
2023/04/06 07:45:05;;;;;;;0.10;0.10;;;;;;;;;;4987897;28;20473;-77
2023/04/06 07:47:31;;;;;;;0.13;0.13;;;;;;;;;;4984300;28;20034;-77
2023/04/06 07:49:57;;;;;;;0.38;0.38;;;;;;;;;;5001585;28;20523;-78
2023/04/06 07:52:22;;;;;;;0.10;0.10;;;;;;;;;;5003103;28;20041;-80
2023/04/06 07:54:49;;;;;;;0.65;0.65;;;;;;;;;;4983474;28;20042;-79
2023/04/06 07:57:15;;;;;;;0.10;0.10;;;;;;;;;;5005577;28;20026;-77
2023/04/06 07:59:40;;;;;;;0.63;0.63;;;;;;;;;;5002903;28;20030;-78
2023/04/06 08:02:06;;;;;;;0.22;0.22;;;;;;;;;;4988443;28;20030;-77
2023/04/06 08:04:31;;;;;;;0.30;0.30;;;;;;;;;;5006300;28;20439;-76
2023/04/06 08:06:56;;;;;;;0.10;0.10;;;;;;;;;;5004923;28;20036;-80
2023/04/06 08:09:22;;;;;;;0.10;0.10;;;;;;;;;;5001353;28;20464;-78
2023/04/06 08:11:48;;;;;;;0.28;0.28;;;;;;;;;;5005659;28;20072;-73
2023/04/06 08:14:15;;;;;;;0.10;0.10;;;;;;;;;;4993147;28;20034;-73
2023/04/06 08:16:40;;;;;;;0.43;0.43;;;;;;;;;;5011891;28;20038;-75
2023/04/06 08:19:09;;;;;;;0.40;0.40;;;;;;;;;;5009093;28;20542;-72
2023/04/06 08:21:34;;;;;;;0.10;0.10;;;;;;;;;;5010041;28;20021;-73
2023/04/06 08:24:00;;;;;;;0.10;0.10;;;;;;;;;;5005067;28;20029;-73
2023/04/06 08:26:25;;;;;;;1.10;1.10;;;;;;;;;;5007866;28;20398;-73
2023/04/06 08:28:51;;;;;;;0.10;0.10;;;;;;;;;;5004833;28;20058;-73
2023/04/06 08:31:17;;;;;;;0.10;0.10;;;;;;;;;;4975519;28;20034;-75
2023/04/06 08:33:42;;;;;;;0.10;0.10;;;;;;;;;;4993054;28;20389;-73
2023/04/06 08:36:14;;;;;;;0.10;0.10;;;;;;;;;;5009975;28;20037;-73
2023/04/06 08:38:41;;;;;;;0.30;0.30;;;;;;;;;;5006506;28;20065;-73
2023/04/06 08:41:07;;;;;;;0.20;0.20;;;;;;;;;;5008435;28;20022;-73
2023/04/06 08:43:33;;;;;;;0.10;0.10;;;;;;;;;;4993471;28;20034;-75
2023/04/06 08:45:59;;;;;;;0.10;0.10;;;;;;;;;;5001086;28;20486;-77
2023/04/06 08:48:25;;;;;;;0.10;0.10;;;;;;;;;;5005379;28;20034;-72
2023/04/06 08:50:50;;;;;;;0.10;0.10;;;;;;;;;;4985875;28;20509;-75
2023/04/06 08:53:18;;;;;;;2.03;1.30;;;;;;;;;;4997791;28;20038;-73
2023/04/06 08:55:44;;;;;;;0.10;0.10;;;;;;;;;;4996749;28;20042;-74
2023/04/06 08:58:10;;;;;;;0.10;0.10;;;;;;;;;;4999734;28;20402;-74
2023/04/06 09:00:37;;;;;;;0.10;0.10;;;;;;;;;;5008143;28;20939;-74
2023/04/06 09:03:03;;;;;;;0.30;0.30;;;;;;;;;;5001420;28;20116;-74
2023/04/06 09:05:29;;;;;;;0.10;0.10;;;;;;;;;;5004954;28;20038;-73
2023/04/06 09:07:55;;;;;;;0.20;0.20;;;;;;;;;;4999635;28;20096;-74
2023/04/06 09:10:24;;;;;;;0.50;0.32;;;;;;;;;;4992752;28;20026;-74
2023/04/06 09:12:50;;;;;;;0.17;0.17;;;;;;;;;;5010853;28;20049;-74
2023/04/06 09:15:20;;;;;;;0.20;0.20;;;;;;;;;;5010609;28;20490;-74
2023/04/06 09:17:46;;;;;;;0.55;0.55;;;;;;;;;;5007625;28;20073;-74
2023/04/06 09:20:11;;;;;;;0.10;0.10;;;;;;;;;;4982709;28;20073;-74
2023/04/06 09:22:38;;;;;;;0.20;0.20;;;;;;;;;;4999081;28;20484;-74
2023/04/06 09:25:04;;;;;;;0.10;0.10;;;;;;;;;;4974832;28;20121;-75
2023/04/06 09:27:33;;;;;;;0.10;0.10;;;;;;;;;;5010860;28;20489;-74
2023/04/06 09:30:12;;;;;;;0.65;0.65;;;;;;;;;;5011109;28;20042;-75
2023/04/06 09:32:48;;;;;;;0.13;0.13;;;;;;;;;;5011997;28;20497;-74
2023/04/06 09:35:14;;;;;;;0.10;0.10;;;;;;;;;;4996920;28;20038;-74
2023/04/06 09:37:40;;;;;;;0.10;0.10;;;;;;;;;;4992484;28;20050;-73
2023/04/06 09:40:06;;;;;;;0.10;0.10;;;;;;;;;;5009560;28;20066;-75
2023/04/06 09:42:32;;;;;;;0.28;0.28;;;;;;;;;;5010302;28;20457;-74
2023/04/06 09:44:58;;;;;;;2.10;1.30;;;;;;;;;;5012277;28;20069;-74
2023/04/06 09:47:25;;;;;;;0.10;0.10;;;;;;;;;;5010390;28;20108;-74
2023/04/06 09:49:53;;;;;;;0.10;0.10;;;;;;;;;;4997272;28;20053;-74
2023/04/06 09:52:19;;;;;;;0.10;0.10;;;;;;;;;;4994164;28;20058;-74
2023/04/06 09:54:47;;;;;;;0.10;0.10;;;;;;;;;;4995654;28;20041;-73
2023/04/06 09:57:16;;;;;;;0.10;0.10;;;;;;;;;;5009120;28;20033;-73
2023/04/06 09:59:50;;;;;;;0.10;0.10;;;;;;;;;;4993158;28;20034;-75
2023/04/06 10:02:34;;;;;;;0.10;0.10;;;;;;;;;;5010946;28;20038;-74
2023/04/06 10:05:04;;;;;;;0.30;0.30;;;;;;;;;;5002370;28;20034;-74
2023/04/06 10:07:29;;;;;;;0.52;0.45;;;;;;;;;;5005416;28;20041;-74
2023/04/06 10:09:55;;;;;;;0.17;0.17;;;;;;;;;;5004305;28;20489;-74
2023/04/06 10:12:20;;;;;;;0.28;0.28;;;;;;;;;;4971259;28;20041;-73
2023/04/06 10:14:46;;;;;;;0.20;0.20;;;;;;;;;;5004945;28;20573;-74
2023/04/06 10:17:12;;;;;;;0.80;0.80;;;;;;;;;;5004853;28;20034;-73
2023/04/06 10:19:52;;;;;;;0.20;0.20;;;;;;;;;;5006070;28;20030;-75
2023/04/06 10:22:30;;;;;;;0.13;0.13;;;;;;;;;;5003613;28;20050;-73
2023/04/06 10:24:56;;;;;;;0.20;0.20;;;;;;;;;;5014048;28;20037;-74
2023/04/06 10:27:29;;;;;;;0.85;0.82;;;;;;;;;;5014565;28;20034;-74
2023/04/06 10:30:00;;;;;;;0.65;0.65;;;;;;;;;;4997031;28;20124;-74
2023/04/06 10:32:36;;;;;;;0.50;0.30;;;;;;;;;;5014515;28;20500;-76
2023/04/06 10:35:11;;;;;;;0.30;0.30;;;;;;;;;;5001371;28;20056;-75
2023/04/06 10:37:47;;;;;;;0.20;0.20;;;;;;;;;;4995243;28;20030;-74
2023/04/06 10:40:23;;;;;;;1.13;0.90;;;;;;;;;;4961277;28;20049;-74
2023/04/06 10:42:48;;;;;;;0.20;0.20;;;;;;;;;;4994650;28;20081;-75
2023/04/06 10:45:21;;;;;;;1.77;1.30;;;;;;;;;;4994327;28;20099;-75
2023/04/06 10:47:46;;;;;;;2.35;2.10;;;;;;;;;;4993926;28;20034;-74
2023/04/06 10:50:14;;;;;;;4.13;2.47;;;;;;;;;;4994660;28;20033;-76
2023/04/06 10:52:40;;;;;;;2.45;2.05;;;;;;;;;;4996206;28;20030;-75
2023/04/06 10:55:06;;;;;;;1.10;0.68;;;;;;;;;;4995166;28;20049;-74
2023/04/06 10:57:32;;;;;;;2.53;2.05;;;;;;;;;;4995003;28;20252;-74
2023/04/06 10:59:58;;;;;;;1.48;0.52;;;;;;;;;;4977182;28;20038;-75
2023/04/06 11:02:23;;;;;;;2.30;1.70;;;;;;;;;;5010798;28;20038;-74
2023/04/06 11:04:56;;;;;;;2.75;2.08;;;;;;;;;;5013886;28;20034;-77
2023/04/06 11:07:25;;;;;;;1.02;0.80;;;;;;;;;;5013838;28;20069;-73
2023/04/06 11:09:51;;;;;;;3.50;1.40;;;;;;;;;;4978261;28;20485;-74
2023/04/06 11:12:24;;;;;;;3.00;1.38;;;;;;;;;;4992847;28;20094;-75
2023/04/06 11:15:06;;;;;;;2.63;1.88;;;;;;;;;;4992829;28;20057;-74
2023/04/06 11:17:32;;;;;;;0.28;0.28;;;;;;;;;;4977332;28;20532;-75
2023/04/06 11:19:57;;;;;;;0.70;0.60;;;;;;;;;;4994122;28;20478;-75
2023/04/06 11:22:23;;;;;;;0.47;0.30;;;;;;;;;;4993746;28;20041;-74
2023/04/06 11:24:49;;;;;;;0.10;0.10;;;;;;;;;;4994210;28;20507;-74
2023/04/06 11:27:18;;;;;;;0.25;0.25;;;;;;;;;;4993805;28;20058;-74
2023/04/06 11:29:45;;;;;;;1.23;1.13;;;;;;;;;;4994236;28;20034;-74
2023/04/06 11:32:12;;;;;;;0.20;0.20;;;;;;;;;;4993930;28;20277;-74
2023/04/06 11:34:38;;;;;;;2.63;2.00;;;;;;;;;;4978844;28;20032;-74
2023/04/06 11:37:07;;;;;;;0.57;0.52;;;;;;;;;;5001074;28;20085;-73
2023/04/06 11:39:37;;;;;;;3.53;1.55;;;;;;;;;;4960161;28;20042;-74
2023/04/06 11:42:03;;;;;;;2.38;1.95;;;;;;;;;;4993780;28;20393;-75
2023/04/06 11:44:31;;;;;;;2.90;2.30;;;;;;;;;;4993673;28;20101;-74
2023/04/06 11:46:57;;;;;;;1.38;1.05;;;;;;;;;;4986642;28;20508;-74
2023/04/06 11:49:26;;;;;;;0.70;0.60;;;;;;;;;;5013110;28;20113;-74
2023/04/06 11:51:51;;;;;;;0.20;0.20;;;;;;;;;;4995436;28;20045;-74
2023/04/06 11:54:17;;;;;;;1.00;0.70;;;;;;;;;;4997732;28;20038;-74
2023/04/06 11:56:46;;;;;;;0.80;0.75;;;;;;;;;;4993640;28;20118;-74
2023/04/06 11:59:11;;;;;;;1.53;1.07;;;;;;;;;;4993128;28;20075;-74
2023/04/06 12:01:45;;;;;;;3.33;3.03;;;;;;;;;;4993174;28;20038;-74
2023/04/06 12:04:11;;;;;;;1.00;0.65;;;;;;;;;;4988637;28;20137;-76
2023/04/06 12:06:37;;;;;;;3.25;1.30;;;;;;;;;;5011310;28;20444;-74
2023/04/06 12:09:02;;;;;;;0.43;0.40;;;;;;;;;;5008647;28;20038;-74
2023/04/06 12:11:28;;;;;;;0.77;0.65;;;;;;;;;;4995735;28;20049;-74
2023/04/06 12:13:53;;;;;;;0.57;0.55;;;;;;;;;;4994208;28;20069;-74
2023/04/06 12:16:19;;;;;;;1.67;1.13;;;;;;;;;;5013517;28;20030;-74
2023/04/06 12:18:44;;;;;;;2.58;1.73;;;;;;;;;;5013208;28;20041;-74
2023/04/06 12:21:10;;;;;;;0.75;0.75;;;;;;;;;;5013064;28;20100;-75
2023/04/06 12:23:35;;;;;;;4.03;2.92;;;;;;;;;;5013221;28;20480;-73
2023/04/06 12:26:01;;;;;;;0.45;0.45;;;;;;;;;;5012985;28;20032;-74
2023/04/06 12:28:27;;;;;;;0.17;0.17;;;;;;;;;;5012775;28;20037;-74
2023/04/06 12:30:53;;;;;;;0.10;0.10;;;;;;;;;;5013275;28;20113;-74
2023/04/06 12:33:19;;;;;;;0.32;0.30;;;;;;;;;;5013224;28;20099;-74
2023/04/06 12:35:45;;;;;;;6.10;2.53;;;;;;;;;;5013159;28;20034;-74
2023/04/06 12:38:11;;;;;;;1.33;0.95;;;;;;;;;;5013171;28;20038;-74
2023/04/06 12:40:37;;;;;;;3.88;2.08;;;;;;;;;;5013653;28;20425;-74
2023/04/06 12:43:03;;;;;;;1.10;1.10;;;;;;;;;;4995525;28;20026;-74
2023/04/06 12:45:30;;;;;;;3.67;1.73;;;;;;;;;;5013138;28;20385;-73
2023/04/06 12:47:55;;;;;;;2.30;1.33;;;;;;;;;;5013042;28;20037;-74
2023/04/06 12:50:21;;;;;;;1.02;0.50;;;;;;;;;;5011790;28;20040;-75
2023/04/06 12:52:47;;;;;;;1.55;1.20;;;;;;;;;;4979273;28;20405;-74
2023/04/06 12:55:12;;;;;;;1.40;1.05;;;;;;;;;;5013035;28;20105;-74
2023/04/06 12:57:37;;;;;;;4.28;2.88;;;;;;;;;;4995444;28;20474;-73
2023/04/06 13:00:04;;;;;;;3.28;2.30;;;;;;;;;;5013207;28;20385;-74
2023/04/06 13:02:30;;;;;;;3.67;2.28;;;;;;;;;;4996342;28;20533;-74
2023/04/06 13:04:56;;;;;;;2.67;1.17;;;;;;;;;;5013880;28;20023;-74
2023/04/06 13:07:21;;;;;;;5.18;2.60;;;;;;;;;;5013136;28;20134;-73
2023/04/06 13:09:49;;;;;;;3.95;2.08;;;;;;;;;;5012908;28;20037;-74
2023/04/06 13:12:14;;;;;;;0.65;0.45;;;;;;;;;;5013019;28;20042;-74
2023/04/06 13:14:40;;;;;;;3.47;2.00;;;;;;;;;;5012751;28;20056;-73
2023/04/06 13:17:06;;;;;;;1.33;0.80;;;;;;;;;;5012763;28;20548;-74
2023/04/06 13:19:31;;;;;;;2.08;1.35;;;;;;;;;;5012635;28;20061;-74
2023/04/06 13:21:57;;;;;;;2.60;1.60;;;;;;;;;;5013001;28;20076;-74
2023/04/06 13:24:23;;;;;;;3.35;1.88;;;;;;;;;;5012859;28;20053;-74
2023/04/06 13:26:48;;;;;;;5.35;2.28;;;;;;;;;;5014313;28;20572;-74
2023/04/06 13:29:14;;;;;;;6.97;1.95;;;;;;;;;;5016681;28;20033;-74
2023/04/06 13:31:39;;;;;;;1.25;0.85;;;;;;;;;;5016523;28;20536;-74
2023/04/06 13:34:05;;;;;;;4.35;2.10;;;;;;;;;;5016424;28;20358;-74
2023/04/06 13:36:32;;;;;;;9.02;2.15;;;;;;;;;;4999096;28;20041;-75
2023/04/06 13:38:57;;;;;;;1.30;0.75;;;;;;;;;;5016510;28;20034;-73
2023/04/06 13:41:24;;;;;;;2.00;1.38;;;;;;;;;;5016312;28;20366;-73
2023/04/06 13:43:50;;;;;;;1.58;0.90;;;;;;;;;;4998793;28;20439;-73
2023/04/06 13:46:16;;;;;;;1.00;0.90;;;;;;;;;;5016318;28;20120;-74
2023/04/06 13:48:42;;;;;;;5.88;1.77;;;;;;;;;;4998445;28;20512;-73
2023/04/06 13:51:11;;;;;;;3.88;2.00;;;;;;;;;;5016116;28;20042;-75
2023/04/06 13:53:36;;;;;;;4.68;2.10;;;;;;;;;;5016096;28;20026;-74
2023/04/06 13:56:02;;;;;;;3.70;1.67;;;;;;;;;;4998479;28;20392;-74
2023/04/06 13:58:27;;;;;;;3.08;1.88;;;;;;;;;;5016069;28;20045;-74
2023/04/06 14:00:53;;;;;;;1.25;0.95;;;;;;;;;;5016164;28;20038;-75
2023/04/06 14:03:18;;;;;;;1.98;1.10;;;;;;;;;;5016100;28;20053;-74
2023/04/06 14:05:47;;;;;;;4.35;1.60;;;;;;;;;;4998353;28;20041;-74
2023/04/06 14:08:12;;;;;;;1.55;1.05;;;;;;;;;;5015960;28;20076;-74
2023/04/06 14:10:38;;;;;;;4.13;1.48;;;;;;;;;;4998819;28;20057;-73
2023/04/06 14:13:04;;;;;;;3.88;2.13;;;;;;;;;;5016160;28;20026;-73
2023/04/06 14:15:29;;;;;;;2.03;1.27;;;;;;;;;;5015916;28;20038;-74
2023/04/06 14:17:55;;;;;;;2.28;1.30;;;;;;;;;;5015549;28;20088;-74
2023/04/06 14:20:21;;;;;;;1.20;0.63;;;;;;;;;;5015909;28;20095;-73
2023/04/06 14:22:46;;;;;;;4.18;1.58;;;;;;;;;;5015788;28;20064;-74
2023/04/06 14:25:12;;;;;;;2.20;1.27;;;;;;;;;;5015428;28;20474;-74
2023/04/06 14:27:38;;;;;;;2.22;1.38;;;;;;;;;;5013927;28;20056;-74
2023/04/06 14:30:03;;;;;;;1.40;0.95;;;;;;;;;;4998169;28;20113;-73
2023/04/06 14:32:29;;;;;;;4.68;1.15;;;;;;;;;;5013678;28;20398;-75
2023/04/06 14:34:54;;;;;;;6.05;1.75;;;;;;;;;;4996156;28;20030;-74
2023/04/06 14:37:21;;;;;;;3.70;1.95;;;;;;;;;;4995787;28;20539;-75
2023/04/06 14:39:46;;;;;;;1.65;1.05;;;;;;;;;;4989885;28;20050;-75
2023/04/06 14:42:11;;;;;;;1.48;0.82;;;;;;;;;;4990090;28;20109;-75
2023/04/06 14:44:38;;;;;;;2.10;1.30;;;;;;;;;;5002666;28;20033;-74